Time;durP1;ratioP1;P1;durP2;ratioP2;P2;SDS_P1;SDS_P2;PMS_P1;PMS_P2;Temp;Humidity;BMP_temperature;BMP_pressure;BME280_temperature;BME280_humidity;BME280_pressure;Samples;Min_cycle;Max_cycle;Signal;HPM_P1;HPM_P2
2022/04/05 00:00:31;;;;;;;19.23;4.90;;;;;;;7.10;75.45;99512.22;5021951;28;20171;-77
2022/04/05 00:02:56;;;;;;;15.30;6.37;;;;;;;7.38;75.01;99518.34;5021871;28;20310;-77
2022/04/05 00:05:22;;;;;;;13.87;4.40;;;;;;;7.58;74.17;99512.38;5022468;28;20178;-77
2022/04/05 00:07:47;;;;;;;11.03;4.93;;;;;;;7.52;73.90;99514.94;5022562;28;20174;-76
2022/04/05 00:10:13;;;;;;;13.97;4.77;;;;;;;7.64;74.14;99514.09;5021418;28;20179;-75
2022/04/05 00:12:40;;;;;;;13.80;5.00;;;;;;;7.36;73.54;99520.09;5021828;28;20175;-76
2022/04/05 00:15:06;;;;;;;9.00;4.67;;;;;;;7.56;74.27;99516.69;5022494;28;20756;-78
2022/04/05 00:17:32;;;;;;;14.73;6.03;;;;;;;7.66;74.17;99515.84;5021855;28;20446;-76
2022/04/05 00:19:58;;;;;;;10.00;4.53;;;;;;;7.64;74.35;99524.47;5021863;28;20417;-78
2022/04/05 00:22:23;;;;;;;12.73;4.80;;;;;;;7.24;74.51;99515.72;5022271;28;20417;-77
2022/04/05 00:24:48;;;;;;;8.27;4.10;;;;;;;7.20;74.85;99524.34;5021975;28;20179;-77
2022/04/05 00:27:14;;;;;;;7.03;3.90;;;;;;;7.53;73.50;99511.50;5021897;28;20193;-78
2022/04/05 00:29:39;;;;;;;12.00;3.93;;;;;;;7.60;72.46;99521.00;5022050;28;20247;-78
2022/04/05 00:32:05;;;;;;;12.87;4.10;;;;;;;7.53;72.17;99516.69;5021218;28;20190;-75
2022/04/05 00:34:30;;;;;;;12.10;4.77;;;;;;;7.36;72.36;99520.09;5021176;28;20206;-75
2022/04/05 00:36:56;;;;;;;9.27;4.00;;;;;;;7.12;73.56;99520.00;5021945;28;20178;-76
2022/04/05 00:39:22;;;;;;;15.50;4.27;;;;;;;7.54;72.59;99515.81;5020729;28;20520;-76
2022/04/05 00:41:48;;;;;;;17.20;4.50;;;;;;;7.68;72.66;99511.50;5021128;28;20557;-76
2022/04/05 00:44:13;;;;;;;10.23;4.10;;;;;;;7.25;73.18;99522.66;5019659;28;20167;-74
2022/04/05 00:46:39;;;;;;;9.63;4.13;;;;;;;6.99;74.21;99519.09;5020390;28;20436;-76
2022/04/05 00:49:04;;;;;;;13.50;4.20;;;;;;;7.02;73.98;99521.69;5021031;28;20229;-76
2022/04/05 00:51:29;;;;;;;13.07;4.17;;;;;;;7.00;74.43;99519.09;5021683;28;20267;-77
2022/04/05 00:53:58;;;;;;;16.17;4.20;;;;;;;7.36;72.73;99524.41;5021271;28;20325;-75
2022/04/05 00:56:24;;;;;;;14.97;4.43;;;;;;;6.98;72.60;99523.41;5003800;28;20210;-77
2022/04/05 00:58:52;;;;;;;10.53;4.03;;;;;;;7.13;73.02;99521.72;5020560;28;20444;-76
2022/04/05 01:01:19;;;;;;;13.83;4.00;;;;;;;7.12;71.67;99526.06;5020825;28;20421;-77
2022/04/05 01:03:48;;;;;;;7.53;3.37;;;;;;;8.12;69.65;99524.50;5021434;28;20445;-75
2022/04/05 01:06:16;;;;;;;8.53;3.97;;;;;;;7.74;70.05;99527.09;5021793;28;20479;-76
2022/04/05 01:08:47;;;;;;;8.10;3.60;;;;;;;7.38;71.17;99528.72;5021469;28;20410;-77
2022/04/05 01:11:12;;;;;;;19.03;4.53;;;;;;;7.30;71.63;99530.44;5021300;28;20743;-76
2022/04/05 01:13:37;;;;;;;8.87;3.87;;;;;;;7.85;70.56;99531.44;5021208;28;20520;-76
2022/04/05 01:16:03;;;;;;;8.87;3.70;;;;;;;7.36;71.13;99535.66;5020657;28;20171;-79
2022/04/05 01:18:29;;;;;;;10.80;4.60;;;;;;;7.42;71.49;99533.06;5019757;28;20552;-77
2022/04/05 01:20:56;;;;;;;13.13;3.63;;;;;;;7.28;70.90;99542.53;5021121;28;20553;-77
2022/04/05 01:23:22;;;;;;;8.70;4.10;;;;;;;7.71;71.00;99536.59;5020588;28;20186;-76
2022/04/05 01:25:47;;;;;;;12.37;4.67;;;;;;;7.63;70.91;99531.41;5020547;28;20422;-76
2022/04/05 01:28:13;;;;;;;8.47;3.60;;;;;;;7.50;71.61;99543.47;5021317;28;20425;-76
2022/04/05 01:30:38;;;;;;;9.97;4.13;;;;;;;7.56;71.15;99543.50;5020791;28;20175;-78
2022/04/05 01:33:03;;;;;;;9.73;4.47;;;;;;;7.94;70.67;99554.78;5020495;28;20267;-78
2022/04/05 01:35:29;;;;;;;14.67;3.93;;;;;;;7.79;71.94;99565.16;5021010;28;20198;-77
2022/04/05 01:37:54;;;;;;;13.17;5.10;;;;;;;6.91;73.89;99563.09;5019676;28;20175;-77
2022/04/05 01:40:19;;;;;;;5.13;3.07;;;;;;;7.30;73.82;99563.28;5020726;28;20592;-78
2022/04/05 01:42:45;;;;;;;8.20;3.70;;;;;;;7.50;72.95;99553.84;5020988;28;20238;-76
2022/04/05 01:45:10;;;;;;;6.97;3.53;;;;;;;7.18;73.77;99566.69;5020788;28;20259;-76
2022/04/05 01:47:38;;;;;;;9.43;4.23;;;;;;;7.06;74.04;99560.59;5020327;28;20261;-77
2022/04/05 01:50:04;;;;;;;10.40;3.60;;;;;;;6.83;74.95;99573.44;5020205;28;20178;-78
2022/04/05 01:52:29;;;;;;;9.03;3.83;;;;;;;6.84;75.08;99572.53;5020134;28;20504;-78
2022/04/05 01:54:55;;;;;;;11.70;4.00;;;;;;;6.97;74.73;99570.03;5019760;28;20298;-76
2022/04/05 01:57:20;;;;;;;14.43;4.03;;;;;;;7.01;74.54;99562.28;5020014;28;20209;-77
2022/04/05 01:59:46;;;;;;;6.90;3.93;;;;;;;6.61;74.62;99569.81;5019719;28;20443;-77
2022/04/05 02:02:11;;;;;;;12.73;4.10;;;;;;;6.66;76.12;99562.94;5018933;28;20250;-75
2022/04/05 02:04:38;;;;;;;9.33;3.73;;;;;;;6.74;75.92;99569.03;5020526;28;20167;-76
2022/04/05 02:07:17;;;;;;;10.90;3.93;;;;;;;6.68;75.38;99573.31;5019734;28;20202;-74
2022/04/05 02:09:44;;;;;;;9.10;3.90;;;;;;;6.39;75.36;99571.38;5019520;28;20417;-76
2022/04/05 02:12:09;;;;;;;11.80;4.30;;;;;;;6.55;75.92;99574.97;5019411;28;20504;-74
2022/04/05 02:14:35;;;;;;;9.73;4.70;;;;;;;6.77;75.02;99569.94;5018853;28;20714;-75
2022/04/05 02:17:01;;;;;;;16.97;4.13;;;;;;;6.94;75.26;99567.41;5019820;28;20233;-75
2022/04/05 02:19:26;;;;;;;10.57;4.00;;;;;;;7.11;74.82;99580.47;5018793;28;20421;-75
2022/04/05 02:21:51;;;;;;;7.03;3.63;;;;;;;6.57;75.13;99573.25;5019448;28;20203;-76
2022/04/05 02:24:17;;;;;;;16.40;4.80;;;;;;;7.28;74.02;99567.56;5020223;28;20171;-76
2022/04/05 02:26:43;;;;;;;6.90;3.33;;;;;;;7.04;73.82;99574.41;5019531;28;20206;-76
2022/04/05 02:29:08;;;;;;;11.50;4.53;;;;;;;7.20;74.82;99577.94;5019492;28;20262;-76
2022/04/05 02:31:34;;;;;;;10.33;4.40;;;;;;;7.16;74.28;99583.97;5019689;28;20474;-77
2022/04/05 02:33:59;;;;;;;10.33;3.93;;;;;;;7.46;74.04;99595.31;5019430;28;20214;-76
2022/04/05 02:36:24;;;;;;;14.93;4.53;;;;;;;7.19;74.61;99602.13;5019220;28;20536;-75
2022/04/05 02:38:50;;;;;;;8.97;4.10;;;;;;;7.39;74.97;99602.22;5019694;28;20182;-76
2022/04/05 02:41:16;;;;;;;9.03;3.97;;;;;;;7.13;74.38;99609.84;5018343;28;20252;-76
2022/04/05 02:43:41;;;;;;;8.93;3.37;;;;;;;7.28;73.55;99609.06;5019571;28;20763;-76
2022/04/05 02:46:08;;;;;;;8.00;4.00;;;;;;;7.29;73.90;99603.88;5019666;28;20171;-75
2022/04/05 02:48:34;;;;;;;8.83;3.97;;;;;;;7.46;73.50;99608.28;5019174;28;20413;-74
2022/04/05 02:51:00;;;;;;;9.37;3.80;;;;;;;7.29;72.88;99616.84;5018839;28;20432;-74
2022/04/05 02:53:25;;;;;;;11.07;3.97;;;;;;;7.49;72.72;99613.47;5019257;28;20445;-76
2022/04/05 02:55:51;;;;;;;13.90;4.33;;;;;;;7.47;71.95;99615.19;5018805;28;20193;-75
2022/04/05 02:58:16;;;;;;;10.13;4.10;;;;;;;7.40;71.74;99622.97;5018241;28;20536;-75
2022/04/05 03:00:41;;;;;;;10.17;4.07;;;;;;;7.25;72.74;99620.28;5019340;28;20221;-74
2022/04/05 03:03:06;;;;;;;9.90;3.57;;;;;;;7.18;72.61;99623.69;5018772;28;20234;-76
2022/04/05 03:05:32;;;;;;;7.37;3.40;;;;;;;7.23;72.10;99625.47;5018387;28;20193;-76
2022/04/05 03:07:57;;;;;;;8.83;3.80;;;;;;;7.19;72.26;99625.44;5018860;28;20174;-75
2022/04/05 03:10:22;;;;;;;6.77;3.60;;;;;;;7.48;70.72;99627.31;5018766;28;20282;-76
2022/04/05 03:12:48;;;;;;;8.53;3.40;;;;;;;7.25;70.60;99635.81;5018690;28;20202;-77
2022/04/05 03:15:13;;;;;;;9.00;3.80;;;;;;;6.97;72.19;99633.09;5019078;28;20222;-77
2022/04/05 03:17:43;;;;;;;8.27;3.90;;;;;;;7.17;71.83;99634.91;5018373;28;20659;-76
2022/04/05 03:20:12;;;;;;;4.60;3.40;;;;;;;7.26;70.87;99640.16;5018696;28;20171;-78
2022/04/05 03:22:40;;;;;;;11.13;3.53;;;;;;;6.88;72.21;99639.06;5019057;28;20434;-76
2022/04/05 03:25:06;;;;;;;6.53;3.73;;;;;;;6.99;72.21;99640.88;5018501;28;20440;-75
2022/04/05 03:27:31;;;;;;;8.03;3.40;;;;;;;6.82;73.51;99644.22;5018401;28;20684;-75
2022/04/05 03:29:56;;;;;;;7.37;3.27;;;;;;;6.53;73.85;99652.59;5018958;28;20167;-75
2022/04/05 03:32:21;;;;;;;14.20;3.60;;;;;;;6.65;73.75;99659.63;5018464;28;20190;-75
2022/04/05 03:34:49;;;;;;;7.70;3.27;;;;;;;6.55;74.28;99669.03;5017673;28;20226;-77
2022/04/05 03:37:15;;;;;;;11.00;3.30;;;;;;;6.64;74.40;99668.22;5018937;28;20170;-77
2022/04/05 03:39:40;;;;;;;8.23;3.00;;;;;;;6.72;73.93;99666.59;5018779;28;20683;-78
2022/04/05 03:42:06;;;;;;;6.47;3.10;;;;;;;6.11;73.74;99676.38;5018587;28;20189;-78
2022/04/05 03:44:31;;;;;;;7.27;4.03;;;;;;;6.36;73.85;99665.41;5018966;28;20163;-77
2022/04/05 03:46:57;;;;;;;8.23;3.33;;;;;;;6.45;73.31;99667.22;5018404;28;20174;-76
2022/04/05 03:49:23;;;;;;;7.83;3.47;;;;;;;6.63;72.32;99665.63;5018145;28;20177;-78
2022/04/05 03:51:48;;;;;;;8.27;2.97;;;;;;;6.74;72.16;99670.06;5018620;28;20163;-76
2022/04/05 03:54:13;;;;;;;5.23;2.90;;;;;;;6.36;73.15;99668.00;5018083;28;20218;-77
2022/04/05 03:56:38;;;;;;;5.10;3.37;;;;;;;6.63;72.67;99669.13;5017544;28;20218;-77
2022/04/05 03:59:04;;;;;;;13.40;3.47;;;;;;;6.69;71.76;99673.47;5018764;28;20194;-77
2022/04/05 04:01:29;;;;;;;18.40;3.80;;;;;;;6.57;71.75;99672.50;5018009;28;20223;-77
2022/04/05 04:03:55;;;;;;;6.47;2.90;;;;;;;6.39;72.57;99672.34;5018082;28;20190;-77
2022/04/05 04:06:20;;;;;;;8.97;3.23;;;;;;;6.53;72.08;99673.31;5018669;28;20525;-77
2022/04/05 04:08:45;;;;;;;5.40;3.17;;;;;;;6.47;71.36;99677.56;5018151;28;20229;-77
2022/04/05 04:11:11;;;;;;;5.87;3.20;;;;;;;6.37;72.02;99679.22;5018021;28;20175;-78
2022/04/05 04:13:36;;;;;;;7.87;2.90;;;;;;;6.70;71.22;99678.66;5018517;28;20245;-76
2022/04/05 04:16:01;;;;;;;10.83;3.97;;;;;;;6.85;69.93;99677.06;5017111;28;20190;-77
2022/04/05 04:18:27;;;;;;;12.73;3.33;;;;;;;6.33;71.13;99680.03;5020663;28;20286;-77
2022/04/05 04:20:52;;;;;;;10.57;3.07;;;;;;;6.42;70.48;99680.13;5022023;28;20175;-77
2022/04/05 04:23:18;;;;;;;10.73;3.60;;;;;;;6.35;70.70;99689.56;5021323;28;20186;-76
2022/04/05 04:25:43;;;;;;;11.17;3.83;;;;;;;6.59;70.26;99688.06;5021337;28;20269;-77
2022/04/05 04:28:09;;;;;;;10.53;3.50;;;;;;;6.57;70.71;99692.34;5021915;28;20171;-77
2022/04/05 04:30:37;;;;;;;12.23;4.20;;;;;;;6.24;70.63;99698.94;5021149;28;20175;-77
2022/04/05 04:33:03;;;;;;;5.23;3.10;;;;;;;6.74;69.59;99695.09;5020471;28;20662;-76
2022/04/05 04:35:28;;;;;;;9.90;3.40;;;;;;;7.21;68.91;99702.38;5021690;28;20504;-77
2022/04/05 04:37:54;;;;;;;15.13;4.67;;;;;;;6.82;69.13;99698.63;5021185;28;20730;-77
2022/04/05 04:40:20;;;;;;;8.10;3.60;;;;;;;6.45;70.27;99712.97;5021174;28;20179;-76
2022/04/05 04:42:45;;;;;;;16.13;4.20;;;;;;;6.74;70.34;99706.31;5021017;28;20167;-75
2022/04/05 04:45:11;;;;;;;13.10;3.70;;;;;;;6.49;70.84;99714.72;5020903;28;20418;-75
2022/04/05 04:47:37;;;;;;;12.20;3.63;;;;;;;6.45;72.33;99716.41;5021491;28;20186;-76
2022/04/05 04:50:03;;;;;;;11.87;5.07;;;;;;;6.42;72.41;99720.72;5021732;28;20402;-77
2022/04/05 04:52:28;;;;;;;13.57;3.93;;;;;;;6.58;72.75;99726.03;5021564;28;20203;-75
2022/04/05 04:54:53;;;;;;;14.03;3.80;;;;;;;6.33;72.89;99722.34;5021495;28;20210;-77
2022/04/05 04:57:19;;;;;;;9.40;4.30;;;;;;;6.50;72.89;99721.66;5021858;28;20171;-76
2022/04/05 04:59:44;;;;;;;13.83;3.83;;;;;;;6.27;72.73;99729.19;5021226;28;20549;-77
2022/04/05 05:02:09;;;;;;;7.77;2.90;;;;;;;6.39;72.45;99730.16;5034620;28;20238;-77
2022/04/05 05:04:35;;;;;;;7.97;3.40;;;;;;;6.81;71.00;99727.97;5040920;28;20166;-76
2022/04/05 05:07:00;;;;;;;12.93;3.77;;;;;;;6.83;70.24;99727.97;5040562;28;20237;-77
2022/04/05 05:09:25;;;;;;;10.07;4.17;;;;;;;6.62;70.71;99739.03;5041161;28;20512;-76
2022/04/05 05:11:51;;;;;;;10.80;3.90;;;;;;;7.02;70.27;99742.84;5040882;28;20178;-79
2022/04/05 05:14:16;;;;;;;5.90;3.30;;;;;;;6.91;70.04;99741.84;5040933;28;20209;-78
2022/04/05 05:16:41;;;;;;;7.30;3.60;;;;;;;6.91;70.16;99740.16;5040621;28;20201;-78
2022/04/05 05:19:07;;;;;;;9.10;4.10;;;;;;;7.29;69.40;99741.28;5040881;28;20181;-78
2022/04/05 05:21:32;;;;;;;9.60;3.50;;;;;;;6.82;70.22;99742.66;5040894;28;20447;-78
2022/04/05 05:23:57;;;;;;;9.87;4.17;;;;;;;6.69;70.42;99758.94;5040916;28;20170;-76
2022/04/05 05:26:23;;;;;;;5.27;3.20;;;;;;;6.62;71.30;99770.97;5040984;28;20171;-75
2022/04/05 05:28:48;;;;;;;5.00;3.10;;;;;;;6.14;72.49;99774.75;5040042;28;20182;-75
2022/04/05 05:31:14;;;;;;;8.17;3.47;;;;;;;6.86;71.14;99766.84;5040354;28;20267;-75
2022/04/05 05:33:39;;;;;;;12.30;3.90;;;;;;;7.08;70.49;99763.59;5027985;28;20210;-74
2022/04/05 05:36:05;;;;;;;11.33;3.90;;;;;;;6.91;70.13;99768.66;5005000;28;20218;-75
2022/04/05 05:38:30;;;;;;;5.37;3.57;;;;;;;6.62;71.82;99765.78;5002583;28;20171;-74
2022/04/05 05:40:55;;;;;;;6.97;3.50;;;;;;;6.97;70.83;99767.84;5020777;28;20517;-77
2022/04/05 05:43:23;;;;;;;10.33;4.10;;;;;;;7.40;70.43;99769.88;5023881;28;20194;-78
2022/04/05 05:45:48;;;;;;;9.00;4.83;;;;;;;7.30;69.90;99774.13;5020057;28;20194;-76
2022/04/05 05:48:13;;;;;;;8.43;3.90;;;;;;;8.22;67.62;99767.72;5020422;28;20429;-77
2022/04/05 05:50:39;;;;;;;6.10;4.80;;;;;;;8.95;66.05;99770.50;5020481;28;20236;-76
2022/04/05 05:53:04;;;;;;;8.00;3.60;;;;;;;10.54;61.67;99770.97;5019886;28;20183;-77
2022/04/05 05:55:30;;;;;;;7.90;4.03;;;;;;;10.54;59.45;99772.69;5020706;28;20413;-76
2022/04/05 05:57:55;;;;;;;5.40;3.47;;;;;;;10.68;58.37;99768.28;5019732;28;20183;-77
2022/04/05 06:00:21;;;;;;;11.20;3.93;;;;;;;11.04;58.16;99768.91;5009583;28;20180;-77
2022/04/05 06:02:52;;;;;;;10.87;3.80;;;;;;;10.67;58.15;99769.16;5000394;28;20230;-76
2022/04/05 06:05:18;;;;;;;6.67;2.90;;;;;;;10.15;58.15;99785.00;5018346;28;20421;-77
2022/04/05 06:07:43;;;;;;;5.27;3.50;;;;;;;10.19;58.89;99781.53;5019602;28;20425;-76
2022/04/05 06:10:10;;;;;;;6.60;3.60;;;;;;;9.75;59.77;99783.41;5020086;28;20560;-76
2022/04/05 06:12:40;;;;;;;8.57;3.57;;;;;;;10.82;58.61;99790.78;5019834;28;20190;-75
2022/04/05 06:15:08;;;;;;;8.03;3.67;;;;;;;10.31;59.57;99791.91;5019978;28;20866;-76
2022/04/05 06:17:35;;;;;;;12.37;4.13;;;;;;;10.33;57.97;99795.38;5001085;28;20701;-76
2022/04/05 06:20:00;;;;;;;8.97;3.47;;;;;;;11.25;56.52;99804.38;4999244;28;20430;-76
2022/04/05 06:22:26;;;;;;;7.10;3.50;;;;;;;12.25;54.54;99799.91;5000462;28;20426;-75
2022/04/05 06:24:51;;;;;;;6.30;3.27;;;;;;;12.62;52.16;99793.31;4999800;28;20222;-74
2022/04/05 06:27:16;;;;;;;10.37;3.67;;;;;;;10.97;53.98;99806.31;4999929;28;20190;-75
2022/04/05 06:29:42;;;;;;;13.07;4.00;;;;;;;11.35;54.20;99810.41;5000154;28;20167;-77
2022/04/05 06:32:07;;;;;;;7.27;2.93;;;;;;;10.72;55.17;99814.31;5018690;28;20195;-75
2022/04/05 06:34:33;;;;;;;8.13;3.30;;;;;;;9.29;58.72;99817.31;5019218;28;20264;-75
2022/04/05 06:36:58;;;;;;;8.03;3.63;;;;;;;9.23;60.28;99828.59;5019819;28;20540;-77
2022/04/05 06:39:24;;;;;;;7.33;3.27;;;;;;;10.09;60.07;99828.47;5019003;28;20175;-74
2022/04/05 06:41:50;;;;;;;5.10;3.50;;;;;;;12.57;57.49;99822.16;5016746;28;20217;-72
2022/04/05 06:44:15;;;;;;;7.97;5.00;;;;;;;9.48;59.82;99828.56;5018088;28;20453;-66
2022/04/05 06:46:40;;;;;;;14.00;4.03;;;;;;;9.36;60.46;99835.53;5018943;28;20209;-77
2022/04/05 06:49:06;;;;;;;8.40;3.53;;;;;;;9.29;60.68;99832.91;5019362;28;20171;-77
2022/04/05 06:51:31;;;;;;;5.00;2.90;;;;;;;8.87;62.04;99846.72;5019309;28;20244;-76
2022/04/05 06:53:57;;;;;;;9.33;3.40;;;;;;;8.27;63.25;99849.09;5017441;28;20217;-76
2022/04/05 06:56:25;;;;;;;9.20;3.90;;;;;;;8.90;63.54;99836.34;5004988;28;20216;-78
2022/04/05 06:58:51;;;;;;;9.13;3.93;;;;;;;9.01;62.62;99840.69;5000525;28;20182;-77
2022/04/05 07:01:16;;;;;;;6.33;3.47;;;;;;;8.88;62.42;99842.41;5018335;28;20426;-78
2022/04/05 07:03:41;;;;;;;9.67;4.00;;;;;;;9.59;60.55;99847.63;5018564;28;20201;-78
2022/04/05 07:06:07;;;;;;;6.63;3.10;;;;;;;8.75;62.14;99852.78;5018197;28;20567;-76
2022/04/05 07:08:32;;;;;;;6.47;3.40;;;;;;;8.20;62.92;99860.28;4999220;28;20247;-79
2022/04/05 07:10:57;;;;;;;12.63;3.50;;;;;;;8.63;63.66;99863.09;4999261;28;20171;-79
2022/04/05 07:13:23;;;;;;;8.13;3.70;;;;;;;8.76;63.12;99859.69;5010180;28;20182;-78
2022/04/05 07:15:48;;;;;;;13.00;3.53;;;;;;;9.19;62.87;99855.47;5017701;28;20271;-78
2022/04/05 07:18:14;;;;;;;6.67;3.57;;;;;;;10.88;57.42;99848.09;5020412;28;20222;-77
2022/04/05 07:20:39;;;;;;;7.10;3.60;;;;;;;11.08;55.38;99843.66;5027661;28;20214;-78
2022/04/05 07:23:05;;;;;;;7.47;3.73;;;;;;;13.05;51.09;99831.06;5026565;28;20536;-78
2022/04/05 07:25:32;;;;;;;7.77;3.30;;;;;;;11.51;52.21;99844.19;5024394;28;20454;-77
2022/04/05 07:27:57;;;;;;;8.53;3.90;;;;;;;11.19;53.59;99848.78;5034057;28;20170;-77
2022/04/05 07:30:24;;;;;;;5.77;2.77;;;;;;;13.78;49.77;99841.25;5034928;28;20629;-77
2022/04/05 07:32:49;;;;;;;7.47;3.43;;;;;;;14.42;47.43;99839.16;5007766;28;20174;-77
2022/04/05 07:35:16;;;;;;;3.90;3.00;;;;;;;13.72;47.50;99844.84;5028304;28;20713;-78
2022/04/05 07:37:41;;;;;;;6.27;3.10;;;;;;;13.56;47.95;99841.63;5018694;28;20273;-78
2022/04/05 07:40:10;;;;;;;4.60;3.00;;;;;;;13.32;47.70;99846.31;5025003;28;20862;-77
2022/04/05 07:42:39;;;;;;;6.07;3.13;;;;;;;13.42;47.96;99852.34;5022484;28;20193;-77
2022/04/05 07:45:05;;;;;;;4.87;3.10;;;;;;;13.56;47.74;99846.00;5028275;28;20412;-78
2022/04/05 07:47:31;;;;;;;7.17;3.67;;;;;;;13.14;48.21;99854.50;5029420;28;20441;-79
2022/04/05 07:49:56;;;;;;;6.10;3.03;;;;;;;11.77;52.13;99864.81;5031775;28;20434;-78
2022/04/05 07:52:21;;;;;;;8.10;3.63;;;;;;;11.43;51.99;99865.13;5020176;28;20189;-78
2022/04/05 07:54:47;;;;;;;5.50;3.10;;;;;;;11.38;52.74;99853.84;5025053;28;20215;-78
2022/04/05 07:57:13;;;;;;;8.13;3.17;;;;;;;11.40;52.97;99866.00;5030806;28;20439;-74
2022/04/05 07:59:39;;;;;;;6.90;3.20;;;;;;;12.27;50.69;99847.78;5027886;28;20175;-76
2022/04/05 08:02:04;;;;;;;6.00;3.27;;;;;;;12.25;51.44;99857.38;5036890;28;20790;-75
2022/04/05 08:04:29;;;;;;;8.93;3.30;;;;;;;11.36;53.90;99859.06;5023401;28;20494;-78
2022/04/05 08:06:55;;;;;;;8.30;3.20;;;;;;;10.56;55.10;99860.44;5033993;28;20268;-76
2022/04/05 08:09:20;;;;;;;8.97;4.30;;;;;;;10.30;56.68;99847.50;5024176;28;20187;-76
2022/04/05 08:11:45;;;;;;;9.03;3.30;;;;;;;12.36;52.40;99851.19;5026222;28;20282;-76
2022/04/05 08:14:11;;;;;;;6.30;3.10;;;;;;;11.94;50.84;99854.22;5026035;28;20305;-77
2022/04/05 08:16:38;;;;;;;6.70;3.37;;;;;;;13.42;48.65;99838.34;5028031;28;20178;-76
2022/04/05 08:19:04;;;;;;;7.70;3.20;;;;;;;12.78;48.38;99846.28;5035950;28;20178;-76
2022/04/05 08:21:30;;;;;;;6.90;3.20;;;;;;;12.70;48.79;99848.97;5029189;28;20506;-76
2022/04/05 08:23:55;;;;;;;5.17;3.37;;;;;;;12.43;50.24;99848.47;5025376;28;20487;-76
2022/04/05 08:26:21;;;;;;;10.67;3.27;;;;;;;12.01;49.57;99848.06;5033519;28;20212;-77
2022/04/05 08:28:46;;;;;;;5.33;3.10;;;;;;;12.53;49.06;99853.56;5036284;28;20221;-75
2022/04/05 08:31:12;;;;;;;8.47;3.20;;;;;;;12.33;48.41;99852.09;5027322;28;20635;-77
2022/04/05 08:33:37;;;;;;;4.50;3.07;;;;;;;12.54;47.78;99852.69;5033441;28;20491;-79
2022/04/05 08:36:03;;;;;;;9.27;4.00;;;;;;;12.62;46.81;99845.59;5026803;28;20179;-79
2022/04/05 08:38:33;;;;;;;10.37;4.30;;;;;;;11.82;49.13;99844.75;5037093;28;20219;-78
2022/04/05 08:41:03;;;;;;;8.70;3.17;;;;;;;12.21;49.19;99847.84;5037615;28;20480;-79
2022/04/05 08:43:29;;;;;;;7.83;3.00;;;;;;;12.67;48.07;99837.72;5030042;28;20404;-78
2022/04/05 08:45:59;;;;;;;6.30;3.10;;;;;;;12.69;46.71;99826.34;5018399;28;20495;-78
2022/04/05 08:48:29;;;;;;;5.33;3.30;;;;;;;11.81;47.04;99837.78;5025020;28;20228;-77
2022/04/05 08:50:57;;;;;;;6.23;2.93;;;;;;;12.18;46.88;99854.84;5027632;28;20408;-77
2022/04/05 08:53:22;;;;;;;5.20;2.87;;;;;;;11.94;47.78;99852.50;5019693;28;20446;-77
2022/04/05 08:55:48;;;;;;;4.87;3.00;;;;;;;10.77;50.54;99858.59;5025177;28;20412;-78
2022/04/05 08:58:19;;;;;;;6.53;3.03;;;;;;;11.18;50.93;99859.22;5028597;28;20556;-79
2022/04/05 09:00:44;;;;;;;5.73;3.03;;;;;;;10.58;52.93;99868.25;5033762;28;20175;-76
2022/04/05 09:03:10;;;;;;;4.43;2.80;;;;;;;9.89;57.63;99871.88;5021333;28;20478;-76
2022/04/05 09:05:37;;;;;;;4.83;3.10;;;;;;;9.51;61.00;99876.28;5032070;28;20427;-75
2022/04/05 09:08:28;;;;;;;7.93;3.73;;;;;;;9.74;59.33;99873.66;5020070;28;20179;-75
2022/04/05 09:11:03;;;;;;;6.83;3.17;;;;;;;10.49;57.90;99868.31;5023359;28;20436;-77
2022/04/05 09:13:28;;;;;;;10.60;3.17;;;;;;;11.05;57.01;99864.50;5028236;28;20878;-76
2022/04/05 09:15:58;;;;;;;9.73;3.30;;;;;;;11.10;55.74;99856.66;5022608;28;20529;-78
2022/04/05 09:18:28;;;;;;;8.57;3.73;;;;;;;11.36;55.33;99871.28;5027573;28;20198;-77
2022/04/05 09:20:53;;;;;;;7.10;3.30;;;;;;;11.33;54.85;99868.69;5027667;28;20417;-78
2022/04/05 09:23:26;;;;;;;6.07;3.30;;;;;;;10.19;57.38;99867.47;5037292;28;20451;-77
2022/04/05 09:25:58;;;;;;;7.23;3.30;;;;;;;10.01;59.34;99866.69;5021285;28;20190;-75
2022/04/05 09:28:40;;;;;;;7.63;2.80;;;;;;;9.73;59.37;99866.72;5022278;28;20873;-78
2022/04/05 09:31:08;;;;;;;7.33;2.80;;;;;;;9.72;59.40;99867.56;5033304;28;20489;-78
2022/04/05 09:33:36;;;;;;;5.77;2.80;;;;;;;9.35;60.59;99880.59;5027642;28;20472;-77
2022/04/05 09:36:17;;;;;;;3.40;2.60;;;;;;;9.75;60.32;99871.91;5031810;28;20433;-75
2022/04/05 09:38:44;;;;;;;5.03;2.87;;;;;;;8.64;62.80;99880.44;4990631;28;20429;-75
2022/04/05 09:41:20;;;;;;;5.57;2.80;;;;;;;9.43;61.20;99868.47;5028604;28;20425;-76
2022/04/05 09:43:51;;;;;;;6.40;3.00;;;;;;;9.44;61.62;99870.22;5025742;28;20425;-77
2022/04/05 09:46:17;;;;;;;11.83;3.67;;;;;;;10.32;60.72;99869.19;5036246;28;20432;-75
2022/04/05 09:48:42;;;;;;;7.00;3.53;;;;;;;10.37;60.40;99858.78;5020006;28;20441;-78
2022/04/05 09:51:10;;;;;;;5.40;2.87;;;;;;;11.04;59.77;99865.41;5019370;28;20186;-76
2022/04/05 09:53:38;;;;;;;3.30;2.70;;;;;;;11.40;58.16;99871.22;5019784;28;20197;-79
2022/04/05 09:56:22;;;;;;;8.87;3.67;;;;;;;11.02;58.46;99867.16;5019313;28;20413;-79
2022/04/05 09:58:53;;;;;;;5.03;3.10;;;;;;;11.00;58.40;99873.25;5038498;28;20432;-78
2022/04/05 10:01:22;;;;;;;6.10;2.90;;;;;;;10.94;57.75;99863.72;5043141;28;20448;-78
2022/04/05 10:04:08;;;;;;;6.20;3.17;;;;;;;10.34;57.87;99866.59;5043796;28;20417;-80
2022/04/05 10:06:38;;;;;;;3.80;2.50;;;;;;;9.83;59.77;99867.56;5040311;28;20440;-78
2022/04/05 10:09:04;;;;;;;9.10;3.43;;;;;;;9.96;60.01;99871.03;5039578;28;20424;-77
2022/04/05 10:11:34;;;;;;;5.03;3.23;;;;;;;9.55;61.70;99883.22;5039682;28;20405;-76
2022/04/05 10:13:59;;;;;;;5.10;3.23;;;;;;;10.03;61.03;99877.94;5039773;28;20465;-75
2022/04/05 10:16:29;;;;;;;6.27;3.80;;;;;;;9.33;61.85;99877.13;5039485;28;20413;-76
2022/04/05 10:19:04;;;;;;;11.30;3.60;;;;;;;10.20;62.11;99877.03;5038598;28;20166;-75
2022/04/05 10:21:34;;;;;;;5.63;4.50;;;;;;;10.24;60.92;99870.94;5039070;28;20399;-75
2022/04/05 10:24:00;;;;;;;6.73;3.90;;;;;;;10.39;59.68;99867.44;5039238;28;20441;-75
2022/04/05 10:26:29;;;;;;;6.73;3.10;;;;;;;10.60;60.03;99869.97;5039257;28;20417;-76
2022/04/05 10:28:57;;;;;;;8.10;3.40;;;;;;;10.82;58.58;99869.00;5039689;28;20420;-76
2022/04/05 10:31:30;;;;;;;7.10;3.33;;;;;;;10.20;59.35;99866.63;5038795;28;20484;-79
2022/04/05 10:33:58;;;;;;;8.80;3.43;;;;;;;10.40;58.77;99867.44;5038835;28;20852;-74
2022/04/05 10:36:24;;;;;;;3.83;2.90;;;;;;;10.27;59.78;99868.34;5039168;28;20416;-74
2022/04/05 10:39:11;;;;;;;8.40;3.97;;;;;;;10.51;59.30;99872.59;5039099;28;20723;-78
2022/04/05 10:41:37;;;;;;;4.40;3.43;;;;;;;10.06;60.96;99880.53;5039154;28;20178;-78
2022/04/05 10:44:23;;;;;;;7.70;4.27;;;;;;;9.90;61.56;99874.50;5039357;28;20794;-79
2022/04/05 10:46:54;;;;;;;5.23;3.43;;;;;;;9.82;63.61;99875.38;5038840;28;20189;-77
2022/04/05 10:49:39;;;;;;;5.27;3.33;;;;;;;10.27;62.99;99873.56;5039242;28;20423;-75
2022/04/05 10:52:15;;;;;;;7.87;3.70;;;;;;;9.90;63.81;99884.03;5022319;28;20685;-76
2022/04/05 10:54:47;;;;;;;5.10;3.07;;;;;;;9.41;64.10;99891.00;5019383;28;20480;-77
2022/04/05 10:57:26;;;;;;;6.30;3.60;;;;;;;9.23;65.39;99885.78;5024451;28;20444;-76
2022/04/05 11:00:00;;;;;;;6.63;3.30;;;;;;;9.24;65.87;99887.50;5038947;28;20401;-77
2022/04/05 11:02:35;;;;;;;8.93;4.03;;;;;;;9.01;65.52;99879.66;5037596;28;20896;-76
2022/04/05 11:05:02;;;;;;;8.80;3.47;;;;;;;9.69;64.78;99884.94;5038664;28;20412;-75
2022/04/05 11:07:28;;;;;;;4.57;3.00;;;;;;;9.56;64.95;99884.06;5038163;28;20416;-76
2022/04/05 11:09:54;;;;;;;6.87;3.37;;;;;;;9.29;65.37;99885.78;5054496;28;20412;-76
2022/04/05 11:12:23;;;;;;;8.60;4.70;;;;;;;9.84;64.03;99884.94;5038454;28;20828;-77
2022/04/05 11:14:56;;;;;;;5.00;3.17;;;;;;;9.71;64.43;99891.00;5037623;28;20465;-76
2022/04/05 11:17:25;;;;;;;7.40;3.97;;;;;;;9.44;64.84;99877.13;5037809;28;20467;-74
2022/04/05 11:19:52;;;;;;;7.03;4.63;;;;;;;10.16;64.04;99872.72;5038606;28;20782;-77
2022/04/05 11:22:20;;;;;;;7.33;3.60;;;;;;;10.05;64.43;99875.34;5038881;28;20427;-79
2022/04/05 11:25:04;;;;;;;6.47;3.97;;;;;;;9.77;64.57;99872.78;5038981;28;20748;-77
2022/04/05 11:27:48;;;;;;;6.80;4.00;;;;;;;10.72;63.82;99869.06;5037756;28;20413;-78
2022/04/05 11:30:22;;;;;;;7.90;3.40;;;;;;;10.38;64.04;99877.03;5038341;28;20458;-76
2022/04/05 11:33:09;;;;;;;7.90;4.37;;;;;;;10.77;63.58;99869.00;5037432;28;20409;-76
2022/04/05 11:35:38;;;;;;;6.70;3.50;;;;;;;10.34;64.67;99877.00;5038522;28;20456;-75